sensor_id;sensor_type;location;lat;lon;timestamp;P1;durP1;ratioP1;P2;durP2;ratioP2
75537;SDS011;64121;48.666;8.114;2022-11-06T00:01:44;8.82;;;5.60;;
75537;SDS011;64121;48.666;8.114;2022-11-06T00:04:09;8.75;;;5.15;;
75537;SDS011;64121;48.666;8.114;2022-11-06T00:06:34;8.63;;;6.07;;
75537;SDS011;64121;48.666;8.114;2022-11-06T00:09:00;10.30;;;5.35;;
75537;SDS011;64121;48.666;8.114;2022-11-06T00:11:27;7.53;;;5.38;;
75537;SDS011;64121;48.666;8.114;2022-11-06T00:13:54;7.90;;;5.20;;
75537;SDS011;64121;48.666;8.114;2022-11-06T00:16:20;7.15;;;5.13;;
75537;SDS011;64121;48.666;8.114;2022-11-06T00:18:45;7.63;;;5.03;;
75537;SDS011;64121;48.666;8.114;2022-11-06T00:21:13;9.60;;;6.25;;
75537;SDS011;64121;48.666;8.114;2022-11-06T00:23:39;8.55;;;6.03;;
75537;SDS011;64121;48.666;8.114;2022-11-06T00:26:05;8.10;;;5.65;;
75537;SDS011;64121;48.666;8.114;2022-11-06T00:28:32;9.55;;;5.88;;
75537;SDS011;64121;48.666;8.114;2022-11-06T00:31:02;8.20;;;5.25;;
75537;SDS011;64121;48.666;8.114;2022-11-06T00:33:29;9.45;;;5.38;;
75537;SDS011;64121;48.666;8.114;2022-11-06T00:35:54;8.50;;;5.82;;
75537;SDS011;64121;48.666;8.114;2022-11-06T00:38:20;7.03;;;5.60;;
75537;SDS011;64121;48.666;8.114;2022-11-06T00:40:45;7.97;;;5.93;;
75537;SDS011;64121;48.666;8.114;2022-11-06T00:43:10;9.50;;;7.07;;
75537;SDS011;64121;48.666;8.114;2022-11-06T00:45:36;10.30;;;7.45;;
75537;SDS011;64121;48.666;8.114;2022-11-06T00:48:03;10.25;;;7.13;;
75537;SDS011;64121;48.666;8.114;2022-11-06T00:50:28;9.35;;;6.60;;
75537;SDS011;64121;48.666;8.114;2022-11-06T00:52:54;9.95;;;5.82;;
75537;SDS011;64121;48.666;8.114;2022-11-06T00:55:19;8.57;;;6.30;;
75537;SDS011;64121;48.666;8.114;2022-11-06T00:57:45;12.23;;;7.60;;
75537;SDS011;64121;48.666;8.114;2022-11-06T01:00:11;12.38;;;7.22;;
75537;SDS011;64121;48.666;8.114;2022-11-06T01:02:37;9.00;;;5.75;;
75537;SDS011;64121;48.666;8.114;2022-11-06T01:05:04;9.75;;;5.53;;
75537;SDS011;64121;48.666;8.114;2022-11-06T01:07:30;9.02;;;4.88;;
75537;SDS011;64121;48.666;8.114;2022-11-06T01:09:55;7.15;;;4.50;;
75537;SDS011;64121;48.666;8.114;2022-11-06T01:12:20;7.93;;;4.85;;
75537;SDS011;64121;48.666;8.114;2022-11-06T01:14:46;7.05;;;4.57;;
75537;SDS011;64121;48.666;8.114;2022-11-06T01:17:11;6.63;;;4.82;;
75537;SDS011;64121;48.666;8.114;2022-11-06T01:19:37;7.90;;;5.13;;
75537;SDS011;64121;48.666;8.114;2022-11-06T01:22:04;8.13;;;4.97;;
75537;SDS011;64121;48.666;8.114;2022-11-06T01:24:29;9.07;;;5.53;;
75537;SDS011;64121;48.666;8.114;2022-11-06T01:26:55;7.55;;;5.30;;
75537;SDS011;64121;48.666;8.114;2022-11-06T01:29:21;9.05;;;5.72;;
75537;SDS011;64121;48.666;8.114;2022-11-06T01:31:46;9.68;;;5.70;;
75537;SDS011;64121;48.666;8.114;2022-11-06T01:34:12;7.63;;;5.20;;
75537;SDS011;64121;48.666;8.114;2022-11-06T01:36:38;8.25;;;5.30;;
75537;SDS011;64121;48.666;8.114;2022-11-06T01:39:05;6.82;;;5.28;;
75537;SDS011;64121;48.666;8.114;2022-11-06T01:41:33;8.68;;;6.03;;
75537;SDS011;64121;48.666;8.114;2022-11-06T01:44:01;7.93;;;5.40;;
75537;SDS011;64121;48.666;8.114;2022-11-06T01:46:29;8.07;;;4.95;;
75537;SDS011;64121;48.666;8.114;2022-11-06T01:48:57;8.02;;;5.05;;
75537;SDS011;64121;48.666;8.114;2022-11-06T01:51:28;8.65;;;5.40;;
75537;SDS011;64121;48.666;8.114;2022-11-06T01:53:56;8.32;;;4.80;;
75537;SDS011;64121;48.666;8.114;2022-11-06T01:56:23;6.63;;;4.63;;
75537;SDS011;64121;48.666;8.114;2022-11-06T01:58:50;7.05;;;4.72;;
75537;SDS011;64121;48.666;8.114;2022-11-06T02:01:17;8.77;;;5.10;;
75537;SDS011;64121;48.666;8.114;2022-11-06T02:03:44;7.28;;;4.57;;
75537;SDS011;64121;48.666;8.114;2022-11-06T02:06:14;8.00;;;4.80;;
75537;SDS011;64121;48.666;8.114;2022-11-06T02:08:39;7.53;;;5.60;;
75537;SDS011;64121;48.666;8.114;2022-11-06T02:11:05;6.60;;;4.63;;
75537;SDS011;64121;48.666;8.114;2022-11-06T02:13:33;7.97;;;4.20;;
75537;SDS011;64121;48.666;8.114;2022-11-06T02:16:20;6.40;;;4.53;;
75537;SDS011;64121;48.666;8.114;2022-11-06T02:18:56;6.90;;;4.53;;
75537;SDS011;64121;48.666;8.114;2022-11-06T02:21:39;7.35;;;4.10;;
75537;SDS011;64121;48.666;8.114;2022-11-06T02:24:33;7.18;;;4.60;;
75537;SDS011;64121;48.666;8.114;2022-11-06T02:27:08;7.32;;;5.20;;
75537;SDS011;64121;48.666;8.114;2022-11-06T02:29:37;7.15;;;4.15;;
75537;SDS011;64121;48.666;8.114;2022-11-06T02:32:10;5.93;;;4.47;;
75537;SDS011;64121;48.666;8.114;2022-11-06T02:34:40;6.63;;;4.05;;
75537;SDS011;64121;48.666;8.114;2022-11-06T02:37:08;7.00;;;4.22;;
75537;SDS011;64121;48.666;8.114;2022-11-06T02:39:39;8.15;;;4.72;;
75537;SDS011;64121;48.666;8.114;2022-11-06T02:42:09;5.93;;;3.78;;
75537;SDS011;64121;48.666;8.114;2022-11-06T02:44:39;7.15;;;4.38;;
75537;SDS011;64121;48.666;8.114;2022-11-06T02:47:06;6.90;;;4.03;;
75537;SDS011;64121;48.666;8.114;2022-11-06T02:49:35;7.25;;;4.80;;
75537;SDS011;64121;48.666;8.114;2022-11-06T02:52:04;5.47;;;3.92;;
75537;SDS011;64121;48.666;8.114;2022-11-06T02:54:34;7.20;;;5.00;;
75537;SDS011;64121;48.666;8.114;2022-11-06T02:57:04;5.75;;;4.10;;
75537;SDS011;64121;48.666;8.114;2022-11-06T02:59:37;7.10;;;4.22;;
75537;SDS011;64121;48.666;8.114;2022-11-06T03:02:09;7.05;;;4.03;;
75537;SDS011;64121;48.666;8.114;2022-11-06T03:04:41;5.55;;;4.22;;
75537;SDS011;64121;48.666;8.114;2022-11-06T03:07:10;5.43;;;3.40;;
75537;SDS011;64121;48.666;8.114;2022-11-06T03:09:46;7.88;;;3.95;;
75537;SDS011;64121;48.666;8.114;2022-11-06T03:12:15;7.63;;;3.70;;
75537;SDS011;64121;48.666;8.114;2022-11-06T03:14:48;4.95;;;3.78;;
75537;SDS011;64121;48.666;8.114;2022-11-06T03:17:21;5.32;;;2.78;;
75537;SDS011;64121;48.666;8.114;2022-11-06T03:19:54;6.63;;;3.53;;
75537;SDS011;64121;48.666;8.114;2022-11-06T03:22:25;4.53;;;3.17;;
75537;SDS011;64121;48.666;8.114;2022-11-06T03:24:57;5.57;;;3.28;;
75537;SDS011;64121;48.666;8.114;2022-11-06T03:27:27;6.82;;;4.05;;
75537;SDS011;64121;48.666;8.114;2022-11-06T03:30:00;5.22;;;3.13;;
75537;SDS011;64121;48.666;8.114;2022-11-06T03:32:28;5.30;;;3.28;;
75537;SDS011;64121;48.666;8.114;2022-11-06T03:34:58;5.03;;;3.13;;
75537;SDS011;64121;48.666;8.114;2022-11-06T03:37:29;5.18;;;2.83;;
75537;SDS011;64121;48.666;8.114;2022-11-06T03:40:00;4.30;;;2.47;;
75537;SDS011;64121;48.666;8.114;2022-11-06T03:42:30;4.90;;;2.40;;
75537;SDS011;64121;48.666;8.114;2022-11-06T03:44:57;5.65;;;2.58;;
75537;SDS011;64121;48.666;8.114;2022-11-06T03:47:27;3.33;;;2.50;;
75537;SDS011;64121;48.666;8.114;2022-11-06T03:49:57;6.28;;;2.58;;
75537;SDS011;64121;48.666;8.114;2022-11-06T03:52:28;4.88;;;2.60;;
75537;SDS011;64121;48.666;8.114;2022-11-06T03:54:59;4.53;;;2.60;;
75537;SDS011;64121;48.666;8.114;2022-11-06T03:57:28;5.40;;;2.75;;
75537;SDS011;64121;48.666;8.114;2022-11-06T04:00:00;4.15;;;2.40;;
75537;SDS011;64121;48.666;8.114;2022-11-06T04:02:29;4.43;;;2.15;;
75537;SDS011;64121;48.666;8.114;2022-11-06T04:04:57;4.10;;;2.08;;
75537;SDS011;64121;48.666;8.114;2022-11-06T04:07:27;5.55;;;2.78;;
75537;SDS011;64121;48.666;8.114;2022-11-06T04:09:58;5.00;;;2.50;;
75537;SDS011;64121;48.666;8.114;2022-11-06T04:12:26;3.30;;;2.22;;
75537;SDS011;64121;48.666;8.114;2022-11-06T04:14:55;4.47;;;2.50;;
75537;SDS011;64121;48.666;8.114;2022-11-06T04:17:25;5.85;;;2.65;;
75537;SDS011;64121;48.666;8.114;2022-11-06T04:19:54;4.85;;;2.25;;
75537;SDS011;64121;48.666;8.114;2022-11-06T04:22:26;3.67;;;2.20;;
75537;SDS011;64121;48.666;8.114;2022-11-06T04:25:07;3.83;;;2.45;;
75537;SDS011;64121;48.666;8.114;2022-11-06T04:27:47;4.45;;;2.25;;
75537;SDS011;64121;48.666;8.114;2022-11-06T04:30:24;3.92;;;1.80;;
75537;SDS011;64121;48.666;8.114;2022-11-06T04:32:57;4.13;;;2.40;;
75537;SDS011;64121;48.666;8.114;2022-11-06T04:35:29;4.18;;;2.38;;
75537;SDS011;64121;48.666;8.114;2022-11-06T04:38:01;3.95;;;2.22;;
75537;SDS011;64121;48.666;8.114;2022-11-06T04:40:35;5.05;;;1.98;;
75537;SDS011;64121;48.666;8.114;2022-11-06T04:43:10;3.78;;;2.25;;
75537;SDS011;64121;48.666;8.114;2022-11-06T04:45:40;3.00;;;2.05;;
75537;SDS011;64121;48.666;8.114;2022-11-06T04:48:11;3.10;;;2.00;;
75537;SDS011;64121;48.666;8.114;2022-11-06T04:50:38;2.97;;;2.03;;
75537;SDS011;64121;48.666;8.114;2022-11-06T04:53:07;3.55;;;1.73;;
75537;SDS011;64121;48.666;8.114;2022-11-06T04:55:36;4.60;;;2.10;;
75537;SDS011;64121;48.666;8.114;2022-11-06T04:58:08;3.63;;;2.45;;
75537;SDS011;64121;48.666;8.114;2022-11-06T05:00:34;4.05;;;2.30;;
75537;SDS011;64121;48.666;8.114;2022-11-06T05:02:59;3.50;;;2.28;;
75537;SDS011;64121;48.666;8.114;2022-11-06T05:05:27;3.97;;;1.88;;
75537;SDS011;64121;48.666;8.114;2022-11-06T05:07:52;2.97;;;1.90;;
75537;SDS011;64121;48.666;8.114;2022-11-06T05:10:17;4.25;;;2.28;;
75537;SDS011;64121;48.666;8.114;2022-11-06T05:12:43;4.32;;;2.50;;
75537;SDS011;64121;48.666;8.114;2022-11-06T05:15:08;3.55;;;2.13;;
75537;SDS011;64121;48.666;8.114;2022-11-06T05:17:34;3.65;;;1.75;;
75537;SDS011;64121;48.666;8.114;2022-11-06T05:19:59;4.10;;;2.17;;
75537;SDS011;64121;48.666;8.114;2022-11-06T05:22:26;7.22;;;2.15;;
75537;SDS011;64121;48.666;8.114;2022-11-06T05:24:51;3.90;;;2.25;;
75537;SDS011;64121;48.666;8.114;2022-11-06T05:27:16;4.10;;;2.33;;
75537;SDS011;64121;48.666;8.114;2022-11-06T05:29:42;5.93;;;2.70;;
75537;SDS011;64121;48.666;8.114;2022-11-06T05:32:07;4.53;;;2.72;;
75537;SDS011;64121;48.666;8.114;2022-11-06T05:34:32;8.73;;;3.15;;
75537;SDS011;64121;48.666;8.114;2022-11-06T05:36:57;8.02;;;3.15;;
75537;SDS011;64121;48.666;8.114;2022-11-06T05:39:24;5.75;;;3.80;;
75537;SDS011;64121;48.666;8.114;2022-11-06T05:41:50;6.28;;;3.95;;
75537;SDS011;64121;48.666;8.114;2022-11-06T05:44:15;7.35;;;4.53;;
75537;SDS011;64121;48.666;8.114;2022-11-06T05:46:40;7.78;;;4.30;;
75537;SDS011;64121;48.666;8.114;2022-11-06T05:49:05;6.15;;;3.60;;
75537;SDS011;64121;48.666;8.114;2022-11-06T05:51:32;6.22;;;3.67;;
75537;SDS011;64121;48.666;8.114;2022-11-06T05:53:58;6.53;;;3.72;;
75537;SDS011;64121;48.666;8.114;2022-11-06T05:56:24;6.60;;;3.72;;
75537;SDS011;64121;48.666;8.114;2022-11-06T05:58:50;5.50;;;3.25;;
75537;SDS011;64121;48.666;8.114;2022-11-06T06:01:15;5.95;;;3.47;;
75537;SDS011;64121;48.666;8.114;2022-11-06T06:03:40;4.97;;;3.20;;
75537;SDS011;64121;48.666;8.114;2022-11-06T06:06:06;6.10;;;3.45;;
75537;SDS011;64121;48.666;8.114;2022-11-06T06:08:31;4.10;;;2.85;;
75537;SDS011;64121;48.666;8.114;2022-11-06T06:10:56;5.40;;;2.95;;
75537;SDS011;64121;48.666;8.114;2022-11-06T06:13:23;5.88;;;3.65;;
75537;SDS011;64121;48.666;8.114;2022-11-06T06:15:48;7.50;;;3.80;;
75537;SDS011;64121;48.666;8.114;2022-11-06T06:18:14;11.32;;;6.28;;
75537;SDS011;64121;48.666;8.114;2022-11-06T06:20:39;7.45;;;4.30;;
75537;SDS011;64121;48.666;8.114;2022-11-06T06:23:04;6.57;;;3.05;;
75537;SDS011;64121;48.666;8.114;2022-11-06T06:25:30;6.68;;;3.75;;
75537;SDS011;64121;48.666;8.114;2022-11-06T06:27:56;7.78;;;4.47;;
75537;SDS011;64121;48.666;8.114;2022-11-06T06:30:23;9.90;;;5.90;;
75537;SDS011;64121;48.666;8.114;2022-11-06T06:32:49;6.63;;;4.45;;
75537;SDS011;64121;48.666;8.114;2022-11-06T06:35:15;8.70;;;5.72;;
75537;SDS011;64121;48.666;8.114;2022-11-06T06:37:41;9.90;;;8.88;;
75537;SDS011;64121;48.666;8.114;2022-11-06T06:40:07;8.63;;;6.80;;
75537;SDS011;64121;48.666;8.114;2022-11-06T06:42:34;10.23;;;6.88;;
75537;SDS011;64121;48.666;8.114;2022-11-06T06:44:59;11.50;;;8.40;;
75537;SDS011;64121;48.666;8.114;2022-11-06T06:47:26;15.70;;;11.40;;
75537;SDS011;64121;48.666;8.114;2022-11-06T06:49:51;13.98;;;10.27;;
75537;SDS011;64121;48.666;8.114;2022-11-06T06:52:16;11.30;;;9.18;;
75537;SDS011;64121;48.666;8.114;2022-11-06T06:54:42;11.55;;;8.18;;
75537;SDS011;64121;48.666;8.114;2022-11-06T06:57:07;8.32;;;5.90;;
75537;SDS011;64121;48.666;8.114;2022-11-06T06:59:32;7.82;;;5.38;;
75537;SDS011;64121;48.666;8.114;2022-11-06T07:01:58;10.15;;;5.43;;
75537;SDS011;64121;48.666;8.114;2022-11-06T07:04:25;6.15;;;4.55;;
75537;SDS011;64121;48.666;8.114;2022-11-06T07:06:51;6.60;;;4.35;;
75537;SDS011;64121;48.666;8.114;2022-11-06T07:09:17;7.60;;;4.95;;
75537;SDS011;64121;48.666;8.114;2022-11-06T07:11:42;7.60;;;5.22;;
75537;SDS011;64121;48.666;8.114;2022-11-06T07:14:08;10.68;;;6.45;;
75537;SDS011;64121;48.666;8.114;2022-11-06T07:16:33;14.10;;;8.13;;
75537;SDS011;64121;48.666;8.114;2022-11-06T07:18:59;13.60;;;8.48;;
75537;SDS011;64121;48.666;8.114;2022-11-06T07:21:25;18.60;;;9.80;;
75537;SDS011;64121;48.666;8.114;2022-11-06T07:23:51;16.00;;;10.70;;
75537;SDS011;64121;48.666;8.114;2022-11-06T07:26:16;14.52;;;11.25;;
75537;SDS011;64121;48.666;8.114;2022-11-06T07:28:42;16.27;;;11.73;;
75537;SDS011;64121;48.666;8.114;2022-11-06T07:31:07;8.30;;;5.93;;
75537;SDS011;64121;48.666;8.114;2022-11-06T07:33:33;7.63;;;5.20;;
75537;SDS011;64121;48.666;8.114;2022-11-06T07:36:02;6.55;;;4.57;;
75537;SDS011;64121;48.666;8.114;2022-11-06T07:38:31;5.95;;;4.88;;
75537;SDS011;64121;48.666;8.114;2022-11-06T07:40:59;8.60;;;6.00;;
75537;SDS011;64121;48.666;8.114;2022-11-06T07:43:25;8.35;;;6.10;;
75537;SDS011;64121;48.666;8.114;2022-11-06T07:45:50;7.85;;;4.82;;
75537;SDS011;64121;48.666;8.114;2022-11-06T07:48:16;13.48;;;5.38;;
75537;SDS011;64121;48.666;8.114;2022-11-06T07:50:41;6.28;;;4.22;;
75537;SDS011;64121;48.666;8.114;2022-11-06T07:53:06;6.75;;;4.28;;
75537;SDS011;64121;48.666;8.114;2022-11-06T07:55:33;6.18;;;4.60;;
75537;SDS011;64121;48.666;8.114;2022-11-06T07:57:58;6.30;;;4.65;;
75537;SDS011;64121;48.666;8.114;2022-11-06T08:00:24;8.40;;;5.00;;
75537;SDS011;64121;48.666;8.114;2022-11-06T08:02:49;9.30;;;6.35;;
75537;SDS011;64121;48.666;8.114;2022-11-06T08:05:15;9.75;;;6.85;;
75537;SDS011;64121;48.666;8.114;2022-11-06T08:07:40;10.98;;;7.60;;
75537;SDS011;64121;48.666;8.114;2022-11-06T08:10:06;11.13;;;6.88;;
75537;SDS011;64121;48.666;8.114;2022-11-06T08:12:33;12.10;;;8.90;;
75537;SDS011;64121;48.666;8.114;2022-11-06T08:14:58;7.82;;;5.93;;
75537;SDS011;64121;48.666;8.114;2022-11-06T08:17:23;8.30;;;5.53;;
75537;SDS011;64121;48.666;8.114;2022-11-06T08:19:49;7.45;;;5.38;;
75537;SDS011;64121;48.666;8.114;2022-11-06T08:22:14;8.50;;;5.50;;
75537;SDS011;64121;48.666;8.114;2022-11-06T08:24:39;9.30;;;5.28;;
75537;SDS011;64121;48.666;8.114;2022-11-06T08:27:05;7.47;;;5.53;;
75537;SDS011;64121;48.666;8.114;2022-11-06T08:29:31;9.82;;;5.72;;
75537;SDS011;64121;48.666;8.114;2022-11-06T08:31:57;8.55;;;6.88;;
75537;SDS011;64121;48.666;8.114;2022-11-06T08:34:22;9.02;;;6.18;;
75537;SDS011;64121;48.666;8.114;2022-11-06T08:36:48;9.30;;;6.53;;
75537;SDS011;64121;48.666;8.114;2022-11-06T08:39:13;9.20;;;6.20;;
75537;SDS011;64121;48.666;8.114;2022-11-06T08:41:38;9.55;;;6.20;;
75537;SDS011;64121;48.666;8.114;2022-11-06T08:44:04;7.53;;;5.07;;
75537;SDS011;64121;48.666;8.114;2022-11-06T08:46:31;7.72;;;5.32;;
75537;SDS011;64121;48.666;8.114;2022-11-06T08:48:56;7.53;;;5.43;;
75537;SDS011;64121;48.666;8.114;2022-11-06T08:51:21;9.75;;;6.25;;
75537;SDS011;64121;48.666;8.114;2022-11-06T08:53:46;9.90;;;7.03;;
75537;SDS011;64121;48.666;8.114;2022-11-06T08:56:12;11.40;;;8.02;;
75537;SDS011;64121;48.666;8.114;2022-11-06T08:58:37;10.68;;;7.65;;
75537;SDS011;64121;48.666;8.114;2022-11-06T09:01:02;10.52;;;7.22;;
75537;SDS011;64121;48.666;8.114;2022-11-06T09:03:29;10.35;;;7.20;;
75537;SDS011;64121;48.666;8.114;2022-11-06T09:05:54;10.98;;;6.03;;
75537;SDS011;64121;48.666;8.114;2022-11-06T09:08:20;12.40;;;7.60;;
75537;SDS011;64121;48.666;8.114;2022-11-06T09:10:45;13.90;;;6.78;;
75537;SDS011;64121;48.666;8.114;2022-11-06T09:13:10;8.52;;;6.07;;
75537;SDS011;64121;48.666;8.114;2022-11-06T09:15:36;8.27;;;4.63;;
75537;SDS011;64121;48.666;8.114;2022-11-06T09:18:04;5.75;;;4.40;;
75537;SDS011;64121;48.666;8.114;2022-11-06T09:20:30;9.25;;;4.80;;
75537;SDS011;64121;48.666;8.114;2022-11-06T09:22:58;6.82;;;4.60;;
75537;SDS011;64121;48.666;8.114;2022-11-06T09:25:24;7.43;;;5.18;;
75537;SDS011;64121;48.666;8.114;2022-11-06T09:27:51;7.63;;;5.32;;
75537;SDS011;64121;48.666;8.114;2022-11-06T09:30:17;8.82;;;5.03;;
75537;SDS011;64121;48.666;8.114;2022-11-06T09:32:45;6.55;;;4.78;;
75537;SDS011;64121;48.666;8.114;2022-11-06T09:35:11;8.43;;;5.68;;
75537;SDS011;64121;48.666;8.114;2022-11-06T09:37:38;9.05;;;5.40;;
75537;SDS011;64121;48.666;8.114;2022-11-06T09:40:03;5.75;;;4.38;;
75537;SDS011;64121;48.666;8.114;2022-11-06T09:42:31;6.55;;;4.25;;
75537;SDS011;64121;48.666;8.114;2022-11-06T09:45:10;6.05;;;4.55;;
75537;SDS011;64121;48.666;8.114;2022-11-06T09:47:39;7.40;;;4.78;;
75537;SDS011;64121;48.666;8.114;2022-11-06T09:50:11;6.22;;;4.60;;
75537;SDS011;64121;48.666;8.114;2022-11-06T09:52:43;5.90;;;4.38;;
75537;SDS011;64121;48.666;8.114;2022-11-06T09:55:13;7.50;;;5.65;;
75537;SDS011;64121;48.666;8.114;2022-11-06T09:57:43;9.23;;;5.43;;
75537;SDS011;64121;48.666;8.114;2022-11-06T10:00:12;6.47;;;5.25;;
75537;SDS011;64121;48.666;8.114;2022-11-06T10:02:40;9.82;;;5.03;;
75537;SDS011;64121;48.666;8.114;2022-11-06T10:05:12;7.60;;;5.68;;
75537;SDS011;64121;48.666;8.114;2022-11-06T10:07:44;7.68;;;5.30;;
75537;SDS011;64121;48.666;8.114;2022-11-06T10:10:12;7.30;;;4.90;;
75537;SDS011;64121;48.666;8.114;2022-11-06T10:12:46;7.80;;;4.80;;
75537;SDS011;64121;48.666;8.114;2022-11-06T10:15:21;5.97;;;4.47;;
75537;SDS011;64121;48.666;8.114;2022-11-06T10:17:53;6.88;;;4.25;;
75537;SDS011;64121;48.666;8.114;2022-11-06T10:20:28;5.95;;;4.35;;
75537;SDS011;64121;48.666;8.114;2022-11-06T10:23:02;5.47;;;3.63;;
75537;SDS011;64121;48.666;8.114;2022-11-06T10:25:36;6.30;;;3.80;;
75537;SDS011;64121;48.666;8.114;2022-11-06T10:28:10;5.22;;;3.65;;
75537;SDS011;64121;48.666;8.114;2022-11-06T10:30:45;5.82;;;3.55;;
75537;SDS011;64121;48.666;8.114;2022-11-06T10:35:52;7.30;;;3.30;;
75537;SDS011;64121;48.666;8.114;2022-11-06T10:38:25;5.57;;;3.47;;
75537;SDS011;64121;48.666;8.114;2022-11-06T10:40:52;5.38;;;3.38;;
75537;SDS011;64121;48.666;8.114;2022-11-06T10:43:22;6.70;;;3.60;;
75537;SDS011;64121;48.666;8.114;2022-11-06T10:45:52;6.15;;;4.03;;
75537;SDS011;64121;48.666;8.114;2022-11-06T10:48:23;6.57;;;3.97;;
75537;SDS011;64121;48.666;8.114;2022-11-06T10:50:56;5.13;;;3.67;;
75537;SDS011;64121;48.666;8.114;2022-11-06T10:53:34;5.55;;;3.75;;
75537;SDS011;64121;48.666;8.114;2022-11-06T10:56:09;5.55;;;3.78;;
75537;SDS011;64121;48.666;8.114;2022-11-06T10:58:45;5.72;;;3.75;;
75537;SDS011;64121;48.666;8.114;2022-11-06T11:01:11;5.05;;;3.53;;
75537;SDS011;64121;48.666;8.114;2022-11-06T11:03:38;6.28;;;4.25;;
75537;SDS011;64121;48.666;8.114;2022-11-06T11:06:06;6.32;;;3.60;;
75537;SDS011;64121;48.666;8.114;2022-11-06T11:08:34;4.30;;;3.30;;
75537;SDS011;64121;48.666;8.114;2022-11-06T11:11:04;5.78;;;4.28;;
75537;SDS011;64121;48.666;8.114;2022-11-06T11:13:31;7.60;;;3.92;;
75537;SDS011;64121;48.666;8.114;2022-11-06T11:15:56;5.32;;;4.13;;
75537;SDS011;64121;48.666;8.114;2022-11-06T11:18:23;6.10;;;3.60;;
75537;SDS011;64121;48.666;8.114;2022-11-06T11:20:50;5.82;;;4.45;;
75537;SDS011;64121;48.666;8.114;2022-11-06T11:23:27;6.88;;;4.35;;
75537;SDS011;64121;48.666;8.114;2022-11-06T11:25:54;6.70;;;4.43;;
75537;SDS011;64121;48.666;8.114;2022-11-06T11:28:26;4.20;;;3.67;;
75537;SDS011;64121;48.666;8.114;2022-11-06T11:30:53;6.38;;;3.88;;
75537;SDS011;64121;48.666;8.114;2022-11-06T11:33:23;4.40;;;3.35;;
75537;SDS011;64121;48.666;8.114;2022-11-06T11:35:50;8.05;;;4.13;;
75537;SDS011;64121;48.666;8.114;2022-11-06T11:38:17;7.38;;;4.30;;
75537;SDS011;64121;48.666;8.114;2022-11-06T11:40:43;5.45;;;4.13;;
75537;SDS011;64121;48.666;8.114;2022-11-06T11:43:16;7.25;;;4.40;;
75537;SDS011;64121;48.666;8.114;2022-11-06T11:45:56;7.82;;;4.65;;
75537;SDS011;64121;48.666;8.114;2022-11-06T11:48:26;10.93;;;6.93;;
75537;SDS011;64121;48.666;8.114;2022-11-06T11:51:09;8.68;;;4.82;;
75537;SDS011;64121;48.666;8.114;2022-11-06T11:53:37;6.75;;;4.65;;
75537;SDS011;64121;48.666;8.114;2022-11-06T11:56:02;5.38;;;4.47;;
75537;SDS011;64121;48.666;8.114;2022-11-06T11:58:32;6.43;;;4.40;;
75537;SDS011;64121;48.666;8.114;2022-11-06T12:00:58;6.45;;;4.60;;
75537;SDS011;64121;48.666;8.114;2022-11-06T12:03:31;6.03;;;4.05;;
75537;SDS011;64121;48.666;8.114;2022-11-06T12:06:03;5.45;;;4.40;;
75537;SDS011;64121;48.666;8.114;2022-11-06T12:08:30;6.15;;;4.38;;
75537;SDS011;64121;48.666;8.114;2022-11-06T12:10:59;6.55;;;4.25;;
75537;SDS011;64121;48.666;8.114;2022-11-06T12:13:27;6.18;;;4.28;;
75537;SDS011;64121;48.666;8.114;2022-11-06T12:15:54;5.30;;;4.28;;
75537;SDS011;64121;48.666;8.114;2022-11-06T12:18:24;6.03;;;3.70;;
75537;SDS011;64121;48.666;8.114;2022-11-06T12:20:53;6.60;;;4.35;;
75537;SDS011;64121;48.666;8.114;2022-11-06T12:23:23;6.50;;;3.90;;
75537;SDS011;64121;48.666;8.114;2022-11-06T12:25:55;7.07;;;4.13;;
75537;SDS011;64121;48.666;8.114;2022-11-06T12:28:25;4.97;;;3.55;;
75537;SDS011;64121;48.666;8.114;2022-11-06T12:30:58;6.03;;;3.78;;
75537;SDS011;64121;48.666;8.114;2022-11-06T12:33:28;4.55;;;3.67;;
75537;SDS011;64121;48.666;8.114;2022-11-06T12:35:56;7.75;;;4.15;;
75537;SDS011;64121;48.666;8.114;2022-11-06T12:38:26;5.45;;;3.90;;
75537;SDS011;64121;48.666;8.114;2022-11-06T12:40:57;6.63;;;4.28;;
75537;SDS011;64121;48.666;8.114;2022-11-06T12:43:30;5.03;;;3.90;;
75537;SDS011;64121;48.666;8.114;2022-11-06T12:46:12;7.03;;;4.80;;
75537;SDS011;64121;48.666;8.114;2022-11-06T12:48:51;5.85;;;4.05;;
75537;SDS011;64121;48.666;8.114;2022-11-06T12:51:36;6.40;;;4.20;;
75537;SDS011;64121;48.666;8.114;2022-11-06T12:54:17;7.57;;;5.30;;
75537;SDS011;64121;48.666;8.114;2022-11-06T12:56:55;5.93;;;4.18;;
75537;SDS011;64121;48.666;8.114;2022-11-06T12:59:32;6.18;;;4.30;;
75537;SDS011;64121;48.666;8.114;2022-11-06T13:02:14;5.22;;;3.85;;
75537;SDS011;64121;48.666;8.114;2022-11-06T13:04:50;5.57;;;4.45;;
75537;SDS011;64121;48.666;8.114;2022-11-06T13:07:24;5.35;;;3.90;;
75537;SDS011;64121;48.666;8.114;2022-11-06T13:10:05;5.32;;;3.95;;
75537;SDS011;64121;48.666;8.114;2022-11-06T13:12:41;5.18;;;4.22;;
75537;SDS011;64121;48.666;8.114;2022-11-06T13:15:15;5.18;;;3.85;;
75537;SDS011;64121;48.666;8.114;2022-11-06T13:17:48;5.95;;;3.55;;
75537;SDS011;64121;48.666;8.114;2022-11-06T13:20:23;4.30;;;3.17;;
75537;SDS011;64121;48.666;8.114;2022-11-06T13:22:55;7.20;;;5.03;;
75537;SDS011;64121;48.666;8.114;2022-11-06T13:25:30;6.28;;;4.30;;
75537;SDS011;64121;48.666;8.114;2022-11-06T13:28:02;5.80;;;3.40;;
75537;SDS011;64121;48.666;8.114;2022-11-06T13:33:03;7.15;;;3.47;;
75537;SDS011;64121;48.666;8.114;2022-11-06T13:35:32;7.20;;;3.70;;
75537;SDS011;64121;48.666;8.114;2022-11-06T13:38:00;5.88;;;4.50;;
75537;SDS011;64121;48.666;8.114;2022-11-06T13:40:31;5.18;;;3.75;;
75537;SDS011;64121;48.666;8.114;2022-11-06T13:43:00;5.35;;;3.83;;
75537;SDS011;64121;48.666;8.114;2022-11-06T13:45:31;5.00;;;2.92;;
75537;SDS011;64121;48.666;8.114;2022-11-06T13:48:04;4.40;;;3.70;;
75537;SDS011;64121;48.666;8.114;2022-11-06T13:50:43;5.05;;;3.60;;
75537;SDS011;64121;48.666;8.114;2022-11-06T13:53:16;9.32;;;4.90;;
75537;SDS011;64121;48.666;8.114;2022-11-06T13:55:49;5.93;;;3.28;;
75537;SDS011;64121;48.666;8.114;2022-11-06T13:58:26;5.20;;;3.58;;
75537;SDS011;64121;48.666;8.114;2022-11-06T14:01:09;5.82;;;3.70;;
75537;SDS011;64121;48.666;8.114;2022-11-06T14:06:46;6.53;;;3.38;;
75537;SDS011;64121;48.666;8.114;2022-11-06T14:09:17;5.43;;;3.40;;
75537;SDS011;64121;48.666;8.114;2022-11-06T14:11:45;4.45;;;2.88;;
75537;SDS011;64121;48.666;8.114;2022-11-06T14:14:22;5.38;;;3.25;;
75537;SDS011;64121;48.666;8.114;2022-11-06T14:17:08;4.17;;;3.23;;
75537;SDS011;64121;48.666;8.114;2022-11-06T14:19:37;4.22;;;3.17;;
75537;SDS011;64121;48.666;8.114;2022-11-06T14:22:15;6.60;;;4.38;;
75537;SDS011;64121;48.666;8.114;2022-11-06T14:24:48;6.55;;;4.68;;
75537;SDS011;64121;48.666;8.114;2022-11-06T14:28:01;5.47;;;3.70;;
75537;SDS011;64121;48.666;8.114;2022-11-06T14:30:38;7.75;;;4.68;;
75537;SDS011;64121;48.666;8.114;2022-11-06T14:33:08;5.35;;;3.33;;
75537;SDS011;64121;48.666;8.114;2022-11-06T14:44:13;7.97;;;3.97;;
75537;SDS011;64121;48.666;8.114;2022-11-06T14:46:47;6.82;;;3.53;;
75537;SDS011;64121;48.666;8.114;2022-11-06T14:49:16;4.70;;;3.42;;
75537;SDS011;64121;48.666;8.114;2022-11-06T14:51:58;5.97;;;3.35;;
75537;SDS011;64121;48.666;8.114;2022-11-06T14:54:25;6.70;;;3.70;;
75537;SDS011;64121;48.666;8.114;2022-11-06T14:56:52;8.48;;;4.90;;
75537;SDS011;64121;48.666;8.114;2022-11-06T14:59:27;24.75;;;16.05;;
75537;SDS011;64121;48.666;8.114;2022-11-06T15:01:57;18.80;;;12.73;;
75537;SDS011;64121;48.666;8.114;2022-11-06T15:04:25;9.18;;;6.78;;
75537;SDS011;64121;48.666;8.114;2022-11-06T15:06:54;8.95;;;5.82;;
75537;SDS011;64121;48.666;8.114;2022-11-06T15:09:43;5.25;;;3.50;;
75537;SDS011;64121;48.666;8.114;2022-11-06T15:12:10;12.70;;;8.68;;
75537;SDS011;64121;48.666;8.114;2022-11-06T15:14:54;10.90;;;8.85;;